createdAt,value
2023-03-13T00:02:40.776Z,80.15
2023-03-13T00:05:43.390Z,80.78
2023-03-13T00:08:46.305Z,81.04
2023-03-13T00:11:50.343Z,81.88
2023-03-13T00:14:52.944Z,82.64
2023-03-13T00:17:55.516Z,82.68
2023-03-13T00:21:01.441Z,83.01
2023-03-13T00:24:05.019Z,83.24
2023-03-13T00:27:08.968Z,83.97
2023-03-13T00:30:12.847Z,84.21
2023-03-13T00:33:15.474Z,84.24
2023-03-13T00:36:19.396Z,84.51
2023-03-13T00:39:22.578Z,84.35
2023-03-13T00:42:26.567Z,84.39
2023-03-13T00:45:29.389Z,84.34
2023-03-13T00:48:33.099Z,84.17
2023-03-13T00:51:36.004Z,83.91
2023-03-13T00:54:39.395Z,83.55
2023-03-13T00:57:43.507Z,83.54
2023-03-13T01:00:46.502Z,83.53
2023-03-13T01:03:52.241Z,83.09
2023-03-13T01:06:54.995Z,83.32
2023-03-13T01:09:57.763Z,83.79
2023-03-13T01:13:02.082Z,83.42
2023-03-13T01:16:06.548Z,83.37
2023-03-13T01:19:13.112Z,83.01
2023-03-13T01:22:16.138Z,82.56
2023-03-13T01:25:19.036Z,82.09
2023-03-13T01:28:23.400Z,80.99
2023-03-13T01:31:28.065Z,80.99
2023-03-13T01:34:30.828Z,80.06
2023-03-13T01:37:34.572Z,79.37
2023-03-13T01:40:41.928Z,78.70
2023-03-13T01:43:46.854Z,78.39
2023-03-13T01:46:49.762Z,77.86
2023-03-13T01:49:53.750Z,77.60
2023-03-13T01:52:56.551Z,77.45
2023-03-13T01:56:02.086Z,77.19
2023-03-13T01:59:09.343Z,77.24
2023-03-13T02:02:12.680Z,76.77
2023-03-13T02:05:17.156Z,76.59
2023-03-13T02:08:26.565Z,76.57
2023-03-13T02:11:40.891Z,76.29
2023-03-13T02:14:47.133Z,76.29
2023-03-13T02:17:51.368Z,76.55
2023-03-13T02:21:02.410Z,76.28
2023-03-13T02:24:14.913Z,75.90
2023-03-13T02:27:19.064Z,75.69
2023-03-13T02:30:22.140Z,75.80
2023-03-13T02:33:28.757Z,75.80
2023-03-13T02:36:32.059Z,75.96
2023-03-13T02:39:35.711Z,75.97
2023-03-13T02:42:42.335Z,75.50
2023-03-13T02:46:02.143Z,75.40
2023-03-13T02:49:20.587Z,75.46
2023-03-13T02:52:27.293Z,75.93
2023-03-13T02:55:34.149Z,76.62
2023-03-13T02:58:49.237Z,77.11
2023-03-13T03:01:53.617Z,77.75
2023-03-13T03:04:56.375Z,77.89
2023-03-13T03:07:59.178Z,77.88
2023-03-13T03:11:02.183Z,77.96
2023-03-13T03:14:06.586Z,78.50
2023-03-13T03:17:09.484Z,79.76
2023-03-13T03:20:12.935Z,81.03
2023-03-13T03:23:15.851Z,82.39
2023-03-13T03:26:19.225Z,82.73
2023-03-13T03:29:23.265Z,83.52
2023-03-13T03:32:25.991Z,83.92
2023-03-13T03:35:29.146Z,84.77
2023-03-13T03:38:32.965Z,84.92
2023-03-13T03:41:35.844Z,84.93
2023-03-13T03:44:39.942Z,84.95
2023-03-13T03:47:42.919Z,85.56
2023-03-13T03:50:45.874Z,86.31
2023-03-13T03:53:48.699Z,86.44
2023-03-13T03:56:51.505Z,86.86
2023-03-13T03:59:55.653Z,86.38
2023-03-13T04:02:58.601Z,86.50
2023-03-13T04:06:01.514Z,86.50
2023-03-13T04:09:04.844Z,87.38
2023-03-13T04:12:08.368Z,87.08
2023-03-13T04:15:13.332Z,87.57
2023-03-13T04:18:16.589Z,88.30
2023-03-13T04:21:19.308Z,87.90
2023-03-13T04:24:22.210Z,86.05
2023-03-13T04:27:25.140Z,85.78
2023-03-13T04:30:29.391Z,85.74
2023-03-13T04:33:32.287Z,84.45
2023-03-13T04:36:34.976Z,84.49
2023-03-13T04:39:37.822Z,84.53
2023-03-13T04:42:41.023Z,83.11
2023-03-13T04:45:45.309Z,83.19
2023-03-13T04:48:48.159Z,81.78
2023-03-13T04:51:50.953Z,81.88
2023-03-13T04:54:53.759Z,81.48
2023-03-13T04:57:56.629Z,82.21
2023-03-13T05:01:00.925Z,82.77
2023-03-13T05:04:03.628Z,81.37
2023-03-13T05:07:06.481Z,81.98
2023-03-13T05:10:10.062Z,81.62
2023-03-13T05:13:12.906Z,82.38
2023-03-13T05:16:17.200Z,81.35
2023-03-13T05:19:20.015Z,81.68
2023-03-13T05:22:22.758Z,81.55
2023-03-13T05:25:25.507Z,81.59
2023-03-13T05:28:28.343Z,81.60
2023-03-13T05:31:32.696Z,80.86
2023-03-13T05:34:35.385Z,80.79
2023-03-13T05:37:40.850Z,80.67
2023-03-13T05:40:44.012Z,80.54
2023-03-13T05:43:46.728Z,79.67
2023-03-13T05:46:50.857Z,80.05
2023-03-13T05:49:53.805Z,79.80
2023-03-13T05:52:56.538Z,79.46
2023-03-13T05:55:59.253Z,79.35
2023-03-13T05:59:01.958Z,79.67
2023-03-13T06:02:06.292Z,80.67
2023-03-13T06:05:09.551Z,79.96
2023-03-13T06:08:12.273Z,80.12
2023-03-13T06:11:15.170Z,79.92
2023-03-13T06:14:17.908Z,80.81
2023-03-13T06:17:22.234Z,80.05
2023-03-13T06:20:25.028Z,79.58
2023-03-13T06:23:28.195Z,79.46
2023-03-13T06:26:31.025Z,80.20
2023-03-13T06:29:33.795Z,79.46
2023-03-13T06:32:38.089Z,78.59
2023-03-13T06:35:55.209Z,80.11
2023-03-13T06:38:58.918Z,79.67
2023-03-13T06:42:01.631Z,79.55
2023-03-13T06:45:04.812Z,79.23
2023-03-13T06:48:09.233Z,78.92
2023-03-13T06:51:13.150Z,78.88
2023-03-13T06:54:15.924Z,79.54
2023-03-13T06:57:18.604Z,79.90
2023-03-13T07:00:22.418Z,79.87
2023-03-13T07:03:26.811Z,80.05
2023-03-13T07:06:29.750Z,79.61
2023-03-13T07:09:32.604Z,81.35
2023-03-13T07:12:35.626Z,81.47
2023-03-13T07:15:40.401Z,80.57
2023-03-13T07:18:45.117Z,81.16
2023-03-13T07:21:49.793Z,80.57
2023-03-13T07:24:52.702Z,82.23
2023-03-13T07:27:55.497Z,81.83
2023-03-13T07:31:05.334Z,81.01
2023-03-13T07:34:09.600Z,81.45
2023-03-13T07:37:12.729Z,80.67
2023-03-13T07:40:15.555Z,80.41
2023-03-13T07:43:18.767Z,81.07
2023-03-13T07:46:21.774Z,81.40
2023-03-13T07:49:26.835Z,81.12
2023-03-13T07:52:29.788Z,81.27
2023-03-13T07:55:32.567Z,80.95
2023-03-13T07:58:36.943Z,81.28
2023-03-13T08:01:39.727Z,80.61
2023-03-13T08:04:44.149Z,81.10
2023-03-13T08:07:46.938Z,80.67
2023-03-13T08:10:49.871Z,80.49
2023-03-13T08:13:53.271Z,79.54
2023-03-13T08:16:56.043Z,79.57
2023-03-13T08:20:00.169Z,78.74
2023-03-13T08:23:02.890Z,78.44
2023-03-13T08:26:07.976Z,77.58
2023-03-13T08:29:12.506Z,77.07
2023-03-13T08:32:15.353Z,76.68
2023-03-13T08:35:19.478Z,77.09
2023-03-13T08:38:22.187Z,76.23
2023-03-13T08:41:26.992Z,76.30
2023-03-13T08:44:29.793Z,75.94
2023-03-13T08:47:33.417Z,75.41
2023-03-13T08:50:37.608Z,76.05
2023-03-13T08:53:41.956Z,74.83
2023-03-13T08:56:44.721Z,74.21
2023-03-13T08:59:47.524Z,74.30
2023-03-13T09:02:50.249Z,74.16
2023-03-13T09:05:56.254Z,73.76
2023-03-13T09:08:59.518Z,73.53
2023-03-13T09:12:02.347Z,72.63
2023-03-13T09:15:05.740Z,73.16
2023-03-13T09:18:08.660Z,73.14
2023-03-13T09:21:15.507Z,71.93
2023-03-13T09:24:18.663Z,71.80
2023-03-13T09:27:21.673Z,71.84
2023-03-13T09:30:24.696Z,70.03
2023-03-13T09:33:27.630Z,70.27
2023-03-13T09:36:31.941Z,71.00
2023-03-13T09:39:34.635Z,70.04
2023-03-13T09:42:46.670Z,69.70
2023-03-13T09:45:53.370Z,69.33
2023-03-13T09:49:00.775Z,69.08
2023-03-13T09:52:16.581Z,68.27
2023-03-13T09:55:22.098Z,66.02
2023-03-13T09:58:29.631Z,65.51
2023-03-13T10:01:34.524Z,63.98
2023-03-13T10:04:43.981Z,64.41
2023-03-13T10:07:48.715Z,64.63
2023-03-13T10:10:57.487Z,63.50
2023-03-13T10:14:05.768Z,62.97
2023-03-13T10:17:17.710Z,62.64
2023-03-13T10:20:25.492Z,62.05
2023-03-13T10:23:40.488Z,61.59
2023-03-13T10:26:43.390Z,59.41
2023-03-13T10:29:46.290Z,59.83
2023-03-13T10:32:49.396Z,58.39
2023-03-13T10:36:05.794Z,59.41
2023-03-13T10:39:16.854Z,59.00
2023-03-13T10:42:24.796Z,58.76
2023-03-13T10:45:28.449Z,59.47
2023-03-13T10:48:37.420Z,59.43
2023-03-13T10:51:41.822Z,59.59
2023-03-13T10:54:46.820Z,58.65
2023-03-13T10:57:59.819Z,59.27
2023-03-13T11:01:18.885Z,59.03
2023-03-13T11:04:30.836Z,56.81
2023-03-13T11:07:36.121Z,55.94
2023-03-13T11:10:54.725Z,56.41
2023-03-13T11:14:09.722Z,55.43
2023-03-13T11:17:31.505Z,56.32
2023-03-13T11:20:36.978Z,57.79
2023-03-13T11:23:46.207Z,57.71
2023-03-13T11:27:04.752Z,58.25
2023-03-13T11:30:20.747Z,57.04
2023-03-13T11:33:37.697Z,57.23
2023-03-13T11:36:48.862Z,54.17
2023-03-13T11:40:10.984Z,50.85
2023-03-13T11:43:35.420Z,49.92
2023-03-13T11:46:51.176Z,50.36
2023-03-13T11:50:27.343Z,49.39
2023-03-13T11:53:46.167Z,49.00
2023-03-13T11:56:55.310Z,49.22
2023-03-13T12:00:20.209Z,46.40
2023-03-13T12:03:32.805Z,46.60
2023-03-13T12:06:39.145Z,48.83
2023-03-13T12:09:45.724Z,46.10
2023-03-13T12:12:53.339Z,46.19
2023-03-13T12:16:01.700Z,46.17
2023-03-13T12:19:04.549Z,45.10
2023-03-13T12:22:16.148Z,45.21
2023-03-13T12:25:24.883Z,44.99
2023-03-13T12:28:36.150Z,44.85
2023-03-13T12:31:44.974Z,44.91
2023-03-13T12:34:56.582Z,44.96
2023-03-13T12:38:06.410Z,45.55
2023-03-13T12:41:20.678Z,44.60
2023-03-13T12:44:24.841Z,44.57
2023-03-13T12:47:33.526Z,43.54
2023-03-13T12:50:45.917Z,44.23
2023-03-13T12:54:25.407Z,42.99
2023-03-13T12:58:10.531Z,42.54
2023-03-13T13:01:20.619Z,41.69
2023-03-13T13:04:28.432Z,42.45
2023-03-13T13:07:34.093Z,43.02
2023-03-13T13:10:36.969Z,42.33
2023-03-13T13:13:41.148Z,42.44
2023-03-13T13:16:45.406Z,42.58
2023-03-13T13:19:49.672Z,42.76
2023-03-13T13:22:53.141Z,43.70
2023-03-13T13:25:57.565Z,42.66
2023-03-13T13:29:02.211Z,42.99
2023-03-13T13:32:07.120Z,42.15
2023-03-13T13:35:30.432Z,43.00
2023-03-13T13:38:42.556Z,43.72
2023-03-13T13:41:45.651Z,44.53
2023-03-13T13:44:59.613Z,43.57
2023-03-13T13:48:31.040Z,43.13
2023-03-13T13:51:37.237Z,43.60
2023-03-13T13:54:56.339Z,44.45
2023-03-13T13:58:05.575Z,44.14
2023-03-13T14:01:11.250Z,43.76
2023-03-13T14:04:20.744Z,44.40
2023-03-13T14:07:31.434Z,44.45
2023-03-13T14:10:40.374Z,45.72
2023-03-13T14:13:43.747Z,44.96
2023-03-13T14:16:48.203Z,43.96
2023-03-13T14:19:51.013Z,45.00
2023-03-13T14:22:57.373Z,44.29
2023-03-13T14:26:10.624Z,43.61
2023-03-13T14:29:20.494Z,42.62
2023-03-13T14:32:27.183Z,42.57
2023-03-13T14:35:30.155Z,42.35
2023-03-13T14:38:34.489Z,41.74
2023-03-13T14:41:43.137Z,42.03
2023-03-13T14:44:50.120Z,42.44
2023-03-13T14:47:54.452Z,42.01
2023-03-13T14:51:14.791Z,40.26
2023-03-13T14:54:31.262Z,39.15
2023-03-13T14:57:35.503Z,40.19
2023-03-13T15:00:41.600Z,38.25
2023-03-13T15:03:46.507Z,38.59
2023-03-13T15:06:49.147Z,38.18
2023-03-13T15:09:53.712Z,38.43
2023-03-13T15:12:56.353Z,38.37
2023-03-13T15:15:59.234Z,38.85
2023-03-13T15:19:01.891Z,39.77
2023-03-13T15:22:04.718Z,40.23
2023-03-13T15:25:17.365Z,40.61
2023-03-13T15:28:22.057Z,40.24
2023-03-13T15:31:27.626Z,41.84
2023-03-13T15:34:33.889Z,41.92
2023-03-13T15:37:36.919Z,42.31
2023-03-13T15:40:41.280Z,41.66
2023-03-13T15:43:43.887Z,42.34
2023-03-13T15:46:48.015Z,42.14
2023-03-13T15:49:50.708Z,42.97
2023-03-13T15:52:54.199Z,42.88
2023-03-13T15:56:00.285Z,42.93
2023-03-13T15:59:03.470Z,43.06
2023-03-13T16:02:15.158Z,42.61
2023-03-13T16:05:18.499Z,42.65
2023-03-13T16:08:34.807Z,42.92
2023-03-13T16:11:40.262Z,42.93
2023-03-13T16:14:42.943Z,42.38
2023-03-13T16:17:45.567Z,42.76
2023-03-13T16:20:49.223Z,43.00
2023-03-13T16:23:51.886Z,43.08
2023-03-13T16:26:55.898Z,43.45
2023-03-13T16:29:58.508Z,44.14
2023-03-13T16:33:04.119Z,44.14
2023-03-13T16:36:14.337Z,44.57
2023-03-13T16:39:17.140Z,45.00
2023-03-13T16:42:21.109Z,44.78
2023-03-13T16:45:24.368Z,45.64
2023-03-13T16:48:27.100Z,45.59
2023-03-13T16:51:30.202Z,46.20
2023-03-13T16:54:32.808Z,46.42
2023-03-13T16:57:37.155Z,46.35
2023-03-13T17:00:39.768Z,46.38
2023-03-13T17:03:42.598Z,46.30
2023-03-13T17:06:46.024Z,46.10
2023-03-13T17:09:48.823Z,46.92
2023-03-13T17:12:53.023Z,47.05
2023-03-13T17:15:55.702Z,48.07
2023-03-13T17:18:59.002Z,48.09
2023-03-13T17:22:01.833Z,48.60
2023-03-13T17:25:04.956Z,49.99
2023-03-13T17:28:13.691Z,51.92
2023-03-13T17:31:17.400Z,53.94
2023-03-13T17:34:20.570Z,54.43
2023-03-13T17:37:23.193Z,53.14
2023-03-13T17:40:28.301Z,55.36
2023-03-13T17:43:32.247Z,56.41
2023-03-13T17:46:39.209Z,57.76
2023-03-13T17:49:41.932Z,58.46
2023-03-13T17:52:44.662Z,59.12
2023-03-13T17:55:47.353Z,60.32
2023-03-13T17:58:54.328Z,60.01
2023-03-13T18:01:57.224Z,60.87
2023-03-13T18:05:00.751Z,61.08
2023-03-13T18:08:03.425Z,61.97
2023-03-13T18:11:06.552Z,62.41
2023-03-13T18:14:10.782Z,63.66
2023-03-13T18:17:19.659Z,63.86
2023-03-13T18:20:24.894Z,64.08
2023-03-13T18:23:27.552Z,65.66
2023-03-13T18:26:32.428Z,66.64
2023-03-13T18:29:36.400Z,65.49
2023-03-13T18:32:39.049Z,62.49
2023-03-13T18:35:41.704Z,64.42
2023-03-13T18:38:44.411Z,68.26
2023-03-13T18:41:49.382Z,71.32
2023-03-13T18:44:54.111Z,74.08
2023-03-13T18:47:59.833Z,76.96
2023-03-13T18:51:07.134Z,79.95
2023-03-13T18:54:13.016Z,81.90
2023-03-13T18:57:21.157Z,84.84
2023-03-13T19:00:31.064Z,86.23
2023-03-13T19:03:40.507Z,87.58
2023-03-13T19:06:48.015Z,88.56
2023-03-13T19:09:59.223Z,88.50
2023-03-13T19:13:06.029Z,88.78
2023-03-13T19:16:28.615Z,88.58
2023-03-13T19:19:34.010Z,88.61
2023-03-13T19:22:41.215Z,88.77
2023-03-13T19:25:47.223Z,89.20
2023-03-13T19:28:52.065Z,89.96
2023-03-13T19:32:05.373Z,90.61
2023-03-13T19:35:17.096Z,91.11
2023-03-13T19:38:26.126Z,91.40
2023-03-13T19:41:32.986Z,92.43
2023-03-13T19:44:40.426Z,91.54
2023-03-13T19:47:53.293Z,91.18
2023-03-13T19:50:59.547Z,91.30
2023-03-13T19:54:06.425Z,92.13
2023-03-13T19:57:17.436Z,92.51
2023-03-13T20:00:29.816Z,92.92
2023-03-13T20:03:40.092Z,93.34
2023-03-13T20:06:48.077Z,93.78
2023-03-13T20:09:55.396Z,92.99
2023-03-13T20:13:00.704Z,86.61
2023-03-13T20:16:06.208Z,84.57
2023-03-13T20:19:13.419Z,84.74
2023-03-13T20:22:21.722Z,85.83
2023-03-13T20:25:29.335Z,86.50
2023-03-13T20:28:35.479Z,88.37
2023-03-13T20:31:41.448Z,88.58
2023-03-13T20:34:48.372Z,88.45
2023-03-13T20:37:58.617Z,89.01
2023-03-13T20:41:06.222Z,89.27
2023-03-13T20:44:12.095Z,89.36
2023-03-13T20:47:19.645Z,89.64
2023-03-13T20:50:26.552Z,90.34
2023-03-13T20:53:31.004Z,90.32
2023-03-13T20:56:37.393Z,88.79
2023-03-13T20:59:49.923Z,89.53
2023-03-13T21:02:56.014Z,88.77
2023-03-13T21:06:02.597Z,89.00
2023-03-13T21:09:11.661Z,89.15
2023-03-13T21:12:18.387Z,88.73
2023-03-13T21:15:27.633Z,89.21
2023-03-13T21:18:32.235Z,89.54
2023-03-13T21:21:40.142Z,89.98
2023-03-13T21:24:48.136Z,88.86
2023-03-13T21:27:53.734Z,88.75
2023-03-13T21:31:02.397Z,87.70
2023-03-13T21:34:09.410Z,87.90
2023-03-13T21:37:25.415Z,87.38
2023-03-13T21:40:32.013Z,88.86
2023-03-13T21:43:37.837Z,88.00
2023-03-13T21:46:48.800Z,89.47
2023-03-13T21:49:56.058Z,89.67
2023-03-13T21:53:03.703Z,88.97
2023-03-13T21:56:09.903Z,89.13
2023-03-13T21:59:15.044Z,88.17
2023-03-13T22:02:20.876Z,87.94
2023-03-13T22:05:26.710Z,87.96
2023-03-13T22:08:35.353Z,88.19
2023-03-13T22:11:43.548Z,88.68
2023-03-13T22:14:46.978Z,88.51
2023-03-13T22:17:52.596Z,88.18
2023-03-13T22:21:00.675Z,88.89
2023-03-13T22:24:09.026Z,89.25
2023-03-13T22:27:12.932Z,89.59
2023-03-13T22:30:16.551Z,89.30
2023-03-13T22:33:20.788Z,88.92
2023-03-13T22:36:27.083Z,89.71
2023-03-13T22:39:36.676Z,89.37
2023-03-13T22:42:42.148Z,89.35
2023-03-13T22:45:49.118Z,89.84
2023-03-13T22:48:53.214Z,90.61
2023-03-13T22:51:57.260Z,89.04
2023-03-13T22:55:05.437Z,89.44
2023-03-13T22:58:11.788Z,90.21
2023-03-13T23:01:18.536Z,89.72
2023-03-13T23:04:23.284Z,88.98
2023-03-13T23:07:28.922Z,89.25
2023-03-13T23:10:35.003Z,88.67
2023-03-13T23:13:38.448Z,88.49
2023-03-13T23:16:41.885Z,87.19
2023-03-13T23:19:45.446Z,86.84
2023-03-13T23:22:50.223Z,88.16
2023-03-13T23:25:54.353Z,88.98
2023-03-13T23:28:57.143Z,87.36
2023-03-13T23:31:59.928Z,88.30
2023-03-13T23:35:03.440Z,89.09
2023-03-13T23:38:06.299Z,89.21
2023-03-13T23:41:12.751Z,88.50
2023-03-13T23:44:15.592Z,87.79
2023-03-13T23:47:18.306Z,87.46
2023-03-13T23:50:21.320Z,88.18
2023-03-13T23:53:24.272Z,87.89
2023-03-13T23:56:29.637Z,87.98
2023-03-13T23:59:32.508Z,87.12
